sensor_id;sensor_type;location;lat;lon;timestamp;P1;durP1;ratioP1;P2;durP2;ratioP2
11222;SDS011;5668;52.012;8.724;2023-09-12T00:02:02;3.90;;;3.50;;
11222;SDS011;5668;52.012;8.724;2023-09-12T00:04:30;3.97;;;3.67;;
11222;SDS011;5668;52.012;8.724;2023-09-12T00:06:57;4.25;;;3.45;;
11222;SDS011;5668;52.012;8.724;2023-09-12T00:09:24;3.47;;;3.17;;
11222;SDS011;5668;52.012;8.724;2023-09-12T00:11:52;4.00;;;3.70;;
11222;SDS011;5668;52.012;8.724;2023-09-12T00:14:21;4.07;;;3.67;;
11222;SDS011;5668;52.012;8.724;2023-09-12T00:16:48;4.30;;;3.40;;
11222;SDS011;5668;52.012;8.724;2023-09-12T00:19:17;3.83;;;3.50;;
11222;SDS011;5668;52.012;8.724;2023-09-12T00:21:45;3.88;;;2.95;;
11222;SDS011;5668;52.012;8.724;2023-09-12T00:24:12;3.67;;;3.03;;
11222;SDS011;5668;52.012;8.724;2023-09-12T00:26:39;3.42;;;3.10;;
11222;SDS011;5668;52.012;8.724;2023-09-12T00:29:06;3.83;;;3.42;;
11222;SDS011;5668;52.012;8.724;2023-09-12T00:31:35;4.47;;;3.05;;
11222;SDS011;5668;52.012;8.724;2023-09-12T00:34:02;5.25;;;3.40;;
11222;SDS011;5668;52.012;8.724;2023-09-12T00:36:29;3.70;;;3.10;;
11222;SDS011;5668;52.012;8.724;2023-09-12T00:38:58;5.03;;;3.35;;
11222;SDS011;5668;52.012;8.724;2023-09-12T00:41:25;4.38;;;3.15;;
11222;SDS011;5668;52.012;8.724;2023-09-12T00:43:52;4.47;;;2.90;;
11222;SDS011;5668;52.012;8.724;2023-09-12T00:46:19;3.33;;;3.13;;
11222;SDS011;5668;52.012;8.724;2023-09-12T00:48:50;3.35;;;2.83;;
11222;SDS011;5668;52.012;8.724;2023-09-12T00:51:19;4.05;;;3.05;;
11222;SDS011;5668;52.012;8.724;2023-09-12T00:53:47;3.30;;;3.00;;
11222;SDS011;5668;52.012;8.724;2023-09-12T00:56:15;3.10;;;2.90;;
11222;SDS011;5668;52.012;8.724;2023-09-12T00:58:42;3.65;;;3.00;;
11222;SDS011;5668;52.012;8.724;2023-09-12T01:01:11;3.38;;;3.03;;
11222;SDS011;5668;52.012;8.724;2023-09-12T01:03:38;3.63;;;2.97;;
11222;SDS011;5668;52.012;8.724;2023-09-12T01:06:06;4.40;;;3.03;;
11222;SDS011;5668;52.012;8.724;2023-09-12T01:08:35;2.95;;;2.75;;
11222;SDS011;5668;52.012;8.724;2023-09-12T01:11:03;3.40;;;2.90;;
11222;SDS011;5668;52.012;8.724;2023-09-12T01:13:31;4.20;;;2.83;;
11222;SDS011;5668;52.012;8.724;2023-09-12T01:15:58;3.42;;;2.90;;
11222;SDS011;5668;52.012;8.724;2023-09-12T01:18:25;2.92;;;2.72;;
11222;SDS011;5668;52.012;8.724;2023-09-12T01:20:58;3.05;;;2.70;;
11222;SDS011;5668;52.012;8.724;2023-09-12T01:23:44;3.42;;;3.00;;
11222;SDS011;5668;52.012;8.724;2023-09-12T01:26:29;3.65;;;3.35;;
11222;SDS011;5668;52.012;8.724;2023-09-12T01:29:08;3.67;;;3.38;;
11222;SDS011;5668;52.012;8.724;2023-09-12T01:31:38;3.58;;;2.58;;
11222;SDS011;5668;52.012;8.724;2023-09-12T01:34:09;2.70;;;2.08;;
11222;SDS011;5668;52.012;8.724;2023-09-12T01:36:37;3.03;;;2.08;;
11222;SDS011;5668;52.012;8.724;2023-09-12T01:39:04;3.72;;;2.20;;
11222;SDS011;5668;52.012;8.724;2023-09-12T01:41:32;3.83;;;2.30;;
11222;SDS011;5668;52.012;8.724;2023-09-12T01:44:05;5.40;;;2.60;;
11222;SDS011;5668;52.012;8.724;2023-09-12T01:46:36;2.55;;;2.35;;
11222;SDS011;5668;52.012;8.724;2023-09-12T01:49:05;3.47;;;2.53;;
11222;SDS011;5668;52.012;8.724;2023-09-12T01:51:33;5.05;;;2.90;;
11222;SDS011;5668;52.012;8.724;2023-09-12T01:54:01;3.42;;;3.13;;
11222;SDS011;5668;52.012;8.724;2023-09-12T01:56:30;3.78;;;3.20;;
11222;SDS011;5668;52.012;8.724;2023-09-12T01:58:58;3.97;;;3.58;;
11222;SDS011;5668;52.012;8.724;2023-09-12T02:01:26;5.28;;;3.35;;
11222;SDS011;5668;52.012;8.724;2023-09-12T02:03:54;6.53;;;3.80;;
11222;SDS011;5668;52.012;8.724;2023-09-12T02:06:22;4.25;;;3.85;;
11222;SDS011;5668;52.012;8.724;2023-09-12T02:08:49;4.05;;;3.60;;
11222;SDS011;5668;52.012;8.724;2023-09-12T02:11:16;4.20;;;3.70;;
11222;SDS011;5668;52.012;8.724;2023-09-12T02:13:43;3.90;;;3.50;;
11222;SDS011;5668;52.012;8.724;2023-09-12T02:16:11;4.05;;;3.65;;
11222;SDS011;5668;52.012;8.724;2023-09-12T02:18:38;4.03;;;3.50;;
11222;SDS011;5668;52.012;8.724;2023-09-12T02:21:06;4.88;;;4.47;;
11222;SDS011;5668;52.012;8.724;2023-09-12T02:23:33;5.60;;;3.85;;
11222;SDS011;5668;52.012;8.724;2023-09-12T02:26:01;4.88;;;4.40;;
11222;SDS011;5668;52.012;8.724;2023-09-12T02:28:28;5.90;;;4.65;;
11222;SDS011;5668;52.012;8.724;2023-09-12T02:30:55;6.45;;;4.00;;
11222;SDS011;5668;52.012;8.724;2023-09-12T02:33:22;4.63;;;3.90;;
11222;SDS011;5668;52.012;8.724;2023-09-12T02:35:49;7.78;;;4.63;;
11222;SDS011;5668;52.012;8.724;2023-09-12T02:38:18;6.43;;;5.70;;
11222;SDS011;5668;52.012;8.724;2023-09-12T02:40:45;7.55;;;6.85;;
11222;SDS011;5668;52.012;8.724;2023-09-12T02:43:13;7.72;;;6.93;;
11222;SDS011;5668;52.012;8.724;2023-09-12T02:45:40;7.68;;;6.88;;
11222;SDS011;5668;52.012;8.724;2023-09-12T02:48:07;9.25;;;8.30;;
11222;SDS011;5668;52.012;8.724;2023-09-12T02:50:34;10.18;;;9.18;;
11222;SDS011;5668;52.012;8.724;2023-09-12T02:53:01;13.32;;;10.13;;
11222;SDS011;5668;52.012;8.724;2023-09-12T02:55:30;12.38;;;11.18;;
11222;SDS011;5668;52.012;8.724;2023-09-12T02:57:58;13.50;;;12.05;;
11222;SDS011;5668;52.012;8.724;2023-09-12T03:02:54;13.52;;;12.13;;
11222;SDS011;5668;52.012;8.724;2023-09-12T03:05:21;14.60;;;13.07;;
11222;SDS011;5668;52.012;8.724;2023-09-12T03:07:49;14.38;;;13.02;;
11222;SDS011;5668;52.012;8.724;2023-09-12T03:10:16;13.60;;;11.93;;
11222;SDS011;5668;52.012;8.724;2023-09-12T03:12:45;13.23;;;11.93;;
11222;SDS011;5668;52.012;8.724;2023-09-12T03:15:13;13.30;;;11.95;;
11222;SDS011;5668;52.012;8.724;2023-09-12T03:17:40;12.95;;;11.70;;
11222;SDS011;5668;52.012;8.724;2023-09-12T03:20:07;13.52;;;12.13;;
11222;SDS011;5668;52.012;8.724;2023-09-12T03:22:36;13.65;;;12.05;;
11222;SDS011;5668;52.012;8.724;2023-09-12T03:25:03;13.45;;;11.88;;
11222;SDS011;5668;52.012;8.724;2023-09-12T03:27:31;12.60;;;11.48;;
11222;SDS011;5668;52.012;8.724;2023-09-12T03:30:00;11.65;;;10.55;;
11222;SDS011;5668;52.012;8.724;2023-09-12T03:32:28;12.98;;;11.57;;
11222;SDS011;5668;52.012;8.724;2023-09-12T03:34:55;13.35;;;11.80;;
11222;SDS011;5668;52.012;8.724;2023-09-12T03:37:22;11.88;;;10.77;;
11222;SDS011;5668;52.012;8.724;2023-09-12T03:39:52;11.30;;;10.25;;
11222;SDS011;5668;52.012;8.724;2023-09-12T03:42:19;10.57;;;9.57;;
11222;SDS011;5668;52.012;8.724;2023-09-12T03:44:46;10.63;;;9.60;;
11222;SDS011;5668;52.012;8.724;2023-09-12T03:47:15;10.63;;;9.63;;
11222;SDS011;5668;52.012;8.724;2023-09-12T03:49:42;10.85;;;9.80;;
11222;SDS011;5668;52.012;8.724;2023-09-12T03:52:09;11.27;;;10.10;;
11222;SDS011;5668;52.012;8.724;2023-09-12T03:54:36;11.27;;;10.27;;
11222;SDS011;5668;52.012;8.724;2023-09-12T03:57:04;13.38;;;11.93;;
11222;SDS011;5668;52.012;8.724;2023-09-12T03:59:31;12.23;;;11.13;;
11222;SDS011;5668;52.012;8.724;2023-09-12T04:01:58;13.00;;;11.90;;
11222;SDS011;5668;52.012;8.724;2023-09-12T04:04:29;13.02;;;11.55;;
11222;SDS011;5668;52.012;8.724;2023-09-12T04:06:56;13.00;;;11.77;;
11222;SDS011;5668;52.012;8.724;2023-09-12T04:09:23;13.90;;;12.45;;
11222;SDS011;5668;52.012;8.724;2023-09-12T04:11:50;13.25;;;11.93;;
11222;SDS011;5668;52.012;8.724;2023-09-12T04:14:17;12.80;;;11.60;;
11222;SDS011;5668;52.012;8.724;2023-09-12T04:16:45;13.25;;;11.30;;
11222;SDS011;5668;52.012;8.724;2023-09-12T04:19:13;11.52;;;10.52;;
11222;SDS011;5668;52.012;8.724;2023-09-12T04:21:42;13.10;;;11.70;;
11222;SDS011;5668;52.012;8.724;2023-09-12T04:24:09;12.73;;;11.52;;
11222;SDS011;5668;52.012;8.724;2023-09-12T04:26:36;13.02;;;11.80;;
11222;SDS011;5668;52.012;8.724;2023-09-12T04:29:04;11.48;;;10.38;;
11222;SDS011;5668;52.012;8.724;2023-09-12T04:31:31;11.25;;;9.77;;
11222;SDS011;5668;52.012;8.724;2023-09-12T04:33:58;10.43;;;9.25;;
11222;SDS011;5668;52.012;8.724;2023-09-12T04:36:25;10.23;;;9.25;;
11222;SDS011;5668;52.012;8.724;2023-09-12T04:38:54;9.93;;;8.90;;
11222;SDS011;5668;52.012;8.724;2023-09-12T04:41:21;12.25;;;9.85;;
11222;SDS011;5668;52.012;8.724;2023-09-12T04:43:48;11.10;;;9.25;;
11222;SDS011;5668;52.012;8.724;2023-09-12T04:46:15;8.95;;;8.13;;
11222;SDS011;5668;52.012;8.724;2023-09-12T04:48:42;8.80;;;8.00;;
11222;SDS011;5668;52.012;8.724;2023-09-12T04:51:09;8.60;;;7.75;;
11222;SDS011;5668;52.012;8.724;2023-09-12T04:53:37;8.77;;;7.90;;
11222;SDS011;5668;52.012;8.724;2023-09-12T04:56:06;9.23;;;8.23;;
11222;SDS011;5668;52.012;8.724;2023-09-12T04:58:35;8.50;;;7.70;;
11222;SDS011;5668;52.012;8.724;2023-09-12T05:01:02;9.30;;;8.23;;
11222;SDS011;5668;52.012;8.724;2023-09-12T05:03:29;9.13;;;7.63;;
11222;SDS011;5668;52.012;8.724;2023-09-12T05:05:58;8.35;;;7.55;;
11222;SDS011;5668;52.012;8.724;2023-09-12T05:08:25;10.23;;;8.15;;
11222;SDS011;5668;52.012;8.724;2023-09-12T05:10:54;9.48;;;8.48;;
11222;SDS011;5668;52.012;8.724;2023-09-12T05:13:22;8.57;;;7.75;;
11222;SDS011;5668;52.012;8.724;2023-09-12T05:15:49;9.43;;;7.03;;
11222;SDS011;5668;52.012;8.724;2023-09-12T05:18:16;9.20;;;6.60;;
11222;SDS011;5668;52.012;8.724;2023-09-12T05:20:44;12.10;;;6.90;;
11222;SDS011;5668;52.012;8.724;2023-09-12T05:23:11;13.57;;;6.63;;
11222;SDS011;5668;52.012;8.724;2023-09-12T05:25:38;9.23;;;5.93;;
11222;SDS011;5668;52.012;8.724;2023-09-12T05:28:05;9.63;;;5.75;;
11222;SDS011;5668;52.012;8.724;2023-09-12T05:30:34;7.43;;;5.22;;
11222;SDS011;5668;52.012;8.724;2023-09-12T05:33:01;9.45;;;5.38;;
11222;SDS011;5668;52.012;8.724;2023-09-12T05:35:29;7.95;;;5.07;;
11222;SDS011;5668;52.012;8.724;2023-09-12T05:37:56;7.10;;;5.55;;
11222;SDS011;5668;52.012;8.724;2023-09-12T05:40:24;7.32;;;5.13;;
11222;SDS011;5668;52.012;8.724;2023-09-12T05:42:51;5.85;;;5.13;;
11222;SDS011;5668;52.012;8.724;2023-09-12T05:45:18;6.97;;;5.28;;
11222;SDS011;5668;52.012;8.724;2023-09-12T05:47:47;5.85;;;5.15;;
11222;SDS011;5668;52.012;8.724;2023-09-12T05:50:15;8.43;;;5.70;;
11222;SDS011;5668;52.012;8.724;2023-09-12T05:52:43;10.30;;;6.53;;
11222;SDS011;5668;52.012;8.724;2023-09-12T05:55:11;6.10;;;5.50;;
11222;SDS011;5668;52.012;8.724;2023-09-12T05:57:38;10.45;;;6.05;;
11222;SDS011;5668;52.012;8.724;2023-09-12T06:00:06;7.15;;;5.80;;
11222;SDS011;5668;52.012;8.724;2023-09-12T06:02:36;8.85;;;5.50;;
11222;SDS011;5668;52.012;8.724;2023-09-12T06:05:05;7.10;;;5.32;;
11222;SDS011;5668;52.012;8.724;2023-09-12T06:07:32;8.20;;;5.45;;
11222;SDS011;5668;52.012;8.724;2023-09-12T06:10:00;7.00;;;6.00;;
11222;SDS011;5668;52.012;8.724;2023-09-12T06:12:28;7.32;;;5.30;;
11222;SDS011;5668;52.012;8.724;2023-09-12T06:14:57;7.63;;;5.75;;
11222;SDS011;5668;52.012;8.724;2023-09-12T06:17:25;6.10;;;5.50;;
11222;SDS011;5668;52.012;8.724;2023-09-12T06:19:52;8.15;;;5.28;;
11222;SDS011;5668;52.012;8.724;2023-09-12T06:22:22;8.40;;;5.18;;
11222;SDS011;5668;52.012;8.724;2023-09-12T06:24:50;8.30;;;4.82;;
11222;SDS011;5668;52.012;8.724;2023-09-12T06:27:17;7.88;;;4.80;;
11222;SDS011;5668;52.012;8.724;2023-09-12T06:29:44;6.82;;;4.70;;
11222;SDS011;5668;52.012;8.724;2023-09-12T06:32:13;4.95;;;4.28;;
11222;SDS011;5668;52.012;8.724;2023-09-12T06:34:40;7.65;;;4.80;;
11222;SDS011;5668;52.012;8.724;2023-09-12T06:37:07;6.15;;;4.75;;
11222;SDS011;5668;52.012;8.724;2023-09-12T06:39:36;6.38;;;4.93;;
11222;SDS011;5668;52.012;8.724;2023-09-12T06:42:03;6.45;;;5.40;;
11222;SDS011;5668;52.012;8.724;2023-09-12T06:44:31;8.82;;;5.32;;
11222;SDS011;5668;52.012;8.724;2023-09-12T06:46:58;5.90;;;5.20;;
11222;SDS011;5668;52.012;8.724;2023-09-12T06:49:25;5.80;;;5.05;;
11222;SDS011;5668;52.012;8.724;2023-09-12T06:51:52;6.88;;;5.45;;
11222;SDS011;5668;52.012;8.724;2023-09-12T06:54:20;5.72;;;5.22;;
11222;SDS011;5668;52.012;8.724;2023-09-12T06:56:48;8.40;;;5.13;;
11222;SDS011;5668;52.012;8.724;2023-09-12T06:59:15;6.55;;;4.85;;
11222;SDS011;5668;52.012;8.724;2023-09-12T07:01:43;6.43;;;5.65;;
11222;SDS011;5668;52.012;8.724;2023-09-12T07:04:10;6.32;;;5.63;;
11222;SDS011;5668;52.012;8.724;2023-09-12T07:06:37;7.55;;;5.47;;
11222;SDS011;5668;52.012;8.724;2023-09-12T07:09:04;6.18;;;5.50;;
11222;SDS011;5668;52.012;8.724;2023-09-12T07:11:33;8.45;;;6.35;;
11222;SDS011;5668;52.012;8.724;2023-09-12T07:14:02;6.78;;;5.78;;
11222;SDS011;5668;52.012;8.724;2023-09-12T07:16:30;6.32;;;5.72;;
11222;SDS011;5668;52.012;8.724;2023-09-12T07:18:57;6.22;;;5.63;;
11222;SDS011;5668;52.012;8.724;2023-09-12T07:21:25;6.03;;;5.45;;
11222;SDS011;5668;52.012;8.724;2023-09-12T07:23:53;6.03;;;5.43;;
11222;SDS011;5668;52.012;8.724;2023-09-12T07:26:20;6.65;;;5.95;;
11222;SDS011;5668;52.012;8.724;2023-09-12T07:28:48;6.65;;;5.78;;
11222;SDS011;5668;52.012;8.724;2023-09-12T07:31:16;7.00;;;6.00;;
11222;SDS011;5668;52.012;8.724;2023-09-12T07:33:44;7.57;;;6.03;;
11222;SDS011;5668;52.012;8.724;2023-09-12T07:36:11;8.40;;;6.30;;
11222;SDS011;5668;52.012;8.724;2023-09-12T07:38:38;7.15;;;6.45;;
11222;SDS011;5668;52.012;8.724;2023-09-12T07:41:06;7.18;;;6.35;;
11222;SDS011;5668;52.012;8.724;2023-09-12T07:43:34;6.88;;;5.93;;
11222;SDS011;5668;52.012;8.724;2023-09-12T07:46:01;6.18;;;5.30;;
11222;SDS011;5668;52.012;8.724;2023-09-12T07:48:29;6.18;;;5.57;;
11222;SDS011;5668;52.012;8.724;2023-09-12T07:50:57;7.65;;;5.80;;
11222;SDS011;5668;52.012;8.724;2023-09-12T07:53:24;5.75;;;5.15;;
11222;SDS011;5668;52.012;8.724;2023-09-12T07:55:52;5.95;;;5.20;;
11222;SDS011;5668;52.012;8.724;2023-09-12T07:58:19;5.30;;;4.70;;
11222;SDS011;5668;52.012;8.724;2023-09-12T08:00:47;5.13;;;4.63;;
11222;SDS011;5668;52.012;8.724;2023-09-12T08:03:14;5.45;;;4.32;;
11222;SDS011;5668;52.012;8.724;2023-09-12T08:05:45;5.00;;;4.50;;
11222;SDS011;5668;52.012;8.724;2023-09-12T08:08:21;6.68;;;4.70;;
11222;SDS011;5668;52.012;8.724;2023-09-12T08:10:49;4.72;;;4.13;;
11222;SDS011;5668;52.012;8.724;2023-09-12T08:13:16;4.95;;;4.45;;
11222;SDS011;5668;52.012;8.724;2023-09-12T08:15:43;4.90;;;3.90;;
11222;SDS011;5668;52.012;8.724;2023-09-12T08:18:10;4.65;;;3.90;;
11222;SDS011;5668;52.012;8.724;2023-09-12T08:20:37;4.57;;;4.15;;
11222;SDS011;5668;52.012;8.724;2023-09-12T08:23:06;3.63;;;3.33;;
11222;SDS011;5668;52.012;8.724;2023-09-12T08:25:33;4.20;;;3.78;;
11222;SDS011;5668;52.012;8.724;2023-09-12T08:28:01;6.53;;;4.15;;
11222;SDS011;5668;52.012;8.724;2023-09-12T08:30:28;5.53;;;3.92;;
11222;SDS011;5668;52.012;8.724;2023-09-12T08:32:55;4.57;;;3.95;;
11222;SDS011;5668;52.012;8.724;2023-09-12T08:35:22;3.95;;;3.50;;
11222;SDS011;5668;52.012;8.724;2023-09-12T08:37:51;4.13;;;3.20;;
11222;SDS011;5668;52.012;8.724;2023-09-12T08:40:20;5.15;;;3.15;;
11222;SDS011;5668;52.012;8.724;2023-09-12T08:42:48;3.20;;;2.90;;
11222;SDS011;5668;52.012;8.724;2023-09-12T08:45:18;2.60;;;2.40;;
11222;SDS011;5668;52.012;8.724;2023-09-12T08:47:49;4.32;;;2.90;;
11222;SDS011;5668;52.012;8.724;2023-09-12T08:50:18;2.72;;;2.53;;
11222;SDS011;5668;52.012;8.724;2023-09-12T08:52:48;3.40;;;2.78;;
11222;SDS011;5668;52.012;8.724;2023-09-12T08:55:15;3.75;;;2.92;;
11222;SDS011;5668;52.012;8.724;2023-09-12T08:57:44;4.32;;;2.58;;
11222;SDS011;5668;52.012;8.724;2023-09-12T09:00:15;4.43;;;2.75;;
11222;SDS011;5668;52.012;8.724;2023-09-12T09:02:44;5.72;;;3.05;;
11222;SDS011;5668;52.012;8.724;2023-09-12T09:05:12;5.70;;;2.80;;
11222;SDS011;5668;52.012;8.724;2023-09-12T09:07:42;3.88;;;3.10;;
11222;SDS011;5668;52.012;8.724;2023-09-12T09:10:14;5.75;;;2.80;;
11222;SDS011;5668;52.012;8.724;2023-09-12T09:12:44;4.30;;;2.70;;
11222;SDS011;5668;52.012;8.724;2023-09-12T09:15:25;3.40;;;2.65;;
11222;SDS011;5668;52.012;8.724;2023-09-12T09:17:53;4.78;;;2.92;;
11222;SDS011;5668;52.012;8.724;2023-09-12T09:20:22;3.72;;;3.05;;
11222;SDS011;5668;52.012;8.724;2023-09-12T09:23:00;4.13;;;3.33;;
11222;SDS011;5668;52.012;8.724;2023-09-12T09:25:30;4.55;;;3.30;;
11222;SDS011;5668;52.012;8.724;2023-09-12T09:27:59;4.68;;;3.60;;
11222;SDS011;5668;52.012;8.724;2023-09-12T09:30:39;3.90;;;3.15;;
11222;SDS011;5668;52.012;8.724;2023-09-12T09:33:08;4.40;;;3.50;;
11222;SDS011;5668;52.012;8.724;2023-09-12T09:35:35;3.97;;;3.45;;
11222;SDS011;5668;52.012;8.724;2023-09-12T09:38:05;7.25;;;3.58;;
11222;SDS011;5668;52.012;8.724;2023-09-12T09:40:33;3.75;;;3.40;;
11222;SDS011;5668;52.012;8.724;2023-09-12T09:43:03;5.13;;;3.22;;
11222;SDS011;5668;52.012;8.724;2023-09-12T09:45:30;4.60;;;3.30;;
11222;SDS011;5668;52.012;8.724;2023-09-12T09:47:58;3.85;;;3.50;;
11222;SDS011;5668;52.012;8.724;2023-09-12T09:50:31;6.13;;;3.60;;
11222;SDS011;5668;52.012;8.724;2023-09-12T09:53:02;3.88;;;3.40;;
11222;SDS011;5668;52.012;8.724;2023-09-12T09:55:33;3.85;;;3.35;;
11222;SDS011;5668;52.012;8.724;2023-09-12T09:58:00;5.03;;;3.70;;
11222;SDS011;5668;52.012;8.724;2023-09-12T10:00:32;4.60;;;3.95;;
11222;SDS011;5668;52.012;8.724;2023-09-12T10:03:01;4.20;;;3.58;;
11222;SDS011;5668;52.012;8.724;2023-09-12T10:05:31;4.30;;;3.85;;
11222;SDS011;5668;52.012;8.724;2023-09-12T10:07:59;4.03;;;3.47;;
11222;SDS011;5668;52.012;8.724;2023-09-12T10:10:30;6.00;;;3.70;;
11222;SDS011;5668;52.012;8.724;2023-09-12T10:13:00;3.75;;;3.15;;
11222;SDS011;5668;52.012;8.724;2023-09-12T10:15:31;3.75;;;3.35;;
11222;SDS011;5668;52.012;8.724;2023-09-12T10:18:01;4.88;;;3.33;;
11222;SDS011;5668;52.012;8.724;2023-09-12T10:20:35;5.65;;;3.22;;
11222;SDS011;5668;52.012;8.724;2023-09-12T10:23:11;4.63;;;3.60;;
11222;SDS011;5668;52.012;8.724;2023-09-12T10:25:41;4.28;;;3.00;;
11222;SDS011;5668;52.012;8.724;2023-09-12T10:28:12;5.35;;;3.10;;
11222;SDS011;5668;52.012;8.724;2023-09-12T10:30:40;4.97;;;3.88;;
11222;SDS011;5668;52.012;8.724;2023-09-12T10:33:08;4.80;;;3.60;;
11222;SDS011;5668;52.012;8.724;2023-09-12T10:35:37;5.30;;;3.80;;
11222;SDS011;5668;52.012;8.724;2023-09-12T10:38:05;5.43;;;3.70;;
11222;SDS011;5668;52.012;8.724;2023-09-12T10:40:34;6.20;;;3.63;;
11222;SDS011;5668;52.012;8.724;2023-09-12T10:43:04;5.45;;;4.05;;
11222;SDS011;5668;52.012;8.724;2023-09-12T10:45:35;4.72;;;3.72;;
11222;SDS011;5668;52.012;8.724;2023-09-12T10:48:04;4.85;;;3.75;;
11222;SDS011;5668;52.012;8.724;2023-09-12T10:50:31;5.10;;;3.92;;
11222;SDS011;5668;52.012;8.724;2023-09-12T10:53:07;4.55;;;3.70;;
11222;SDS011;5668;52.012;8.724;2023-09-12T10:55:38;6.15;;;3.28;;
11222;SDS011;5668;52.012;8.724;2023-09-12T10:58:05;4.57;;;3.33;;
11222;SDS011;5668;52.012;8.724;2023-09-12T11:00:36;4.03;;;3.20;;
11222;SDS011;5668;52.012;8.724;2023-09-12T11:06:02;2.80;;;2.60;;
11222;SDS011;5668;52.012;8.724;2023-09-12T11:08:34;4.70;;;2.45;;
11222;SDS011;5668;52.012;8.724;2023-09-12T11:11:18;2.83;;;2.40;;
11222;SDS011;5668;52.012;8.724;2023-09-12T11:13:46;4.03;;;3.00;;
11222;SDS011;5668;52.012;8.724;2023-09-12T11:16:30;3.55;;;2.15;;
11222;SDS011;5668;52.012;8.724;2023-09-12T11:19:14;3.83;;;1.90;;
11222;SDS011;5668;52.012;8.724;2023-09-12T11:21:43;2.70;;;2.50;;
11222;SDS011;5668;52.012;8.724;2023-09-12T11:24:11;2.40;;;2.15;;
11222;SDS011;5668;52.012;8.724;2023-09-12T11:26:55;3.20;;;2.17;;
11222;SDS011;5668;52.012;8.724;2023-09-12T11:29:26;2.70;;;2.35;;
11222;SDS011;5668;52.012;8.724;2023-09-12T11:31:57;2.92;;;2.50;;
11222;SDS011;5668;52.012;8.724;2023-09-12T11:34:25;3.42;;;2.42;;
11222;SDS011;5668;52.012;8.724;2023-09-12T11:36:56;2.92;;;2.58;;
11222;SDS011;5668;52.012;8.724;2023-09-12T11:39:28;3.30;;;2.90;;
11222;SDS011;5668;52.012;8.724;2023-09-12T11:41:56;3.70;;;3.17;;
11222;SDS011;5668;52.012;8.724;2023-09-12T11:44:25;4.00;;;3.13;;
11222;SDS011;5668;52.012;8.724;2023-09-12T11:46:53;3.75;;;3.13;;
11222;SDS011;5668;52.012;8.724;2023-09-12T11:49:22;5.05;;;3.15;;
11222;SDS011;5668;52.012;8.724;2023-09-12T11:51:50;3.40;;;3.08;;
11222;SDS011;5668;52.012;8.724;2023-09-12T11:54:19;3.30;;;2.65;;
11222;SDS011;5668;52.012;8.724;2023-09-12T11:56:51;3.85;;;3.15;;
11222;SDS011;5668;52.012;8.724;2023-09-12T11:59:22;3.35;;;3.00;;
11222;SDS011;5668;52.012;8.724;2023-09-12T12:01:49;3.47;;;3.17;;
11222;SDS011;5668;52.012;8.724;2023-09-12T12:04:17;3.10;;;2.80;;
11222;SDS011;5668;52.012;8.724;2023-09-12T12:06:47;3.83;;;2.80;;
11222;SDS011;5668;52.012;8.724;2023-09-12T12:09:14;3.03;;;2.60;;
11222;SDS011;5668;52.012;8.724;2023-09-12T12:11:44;2.88;;;2.35;;
11222;SDS011;5668;52.012;8.724;2023-09-12T12:14:12;2.60;;;2.40;;
11222;SDS011;5668;52.012;8.724;2023-09-12T12:16:40;3.03;;;2.60;;
11222;SDS011;5668;52.012;8.724;2023-09-12T12:19:08;2.63;;;2.42;;
11222;SDS011;5668;52.012;8.724;2023-09-12T12:21:36;2.13;;;1.95;;
11222;SDS011;5668;52.012;8.724;2023-09-12T12:24:07;2.45;;;2.10;;
11222;SDS011;5668;52.012;8.724;2023-09-12T12:26:37;2.33;;;2.13;;
11222;SDS011;5668;52.012;8.724;2023-09-12T12:29:06;2.80;;;2.28;;
11222;SDS011;5668;52.012;8.724;2023-09-12T12:31:35;2.35;;;2.15;;
11222;SDS011;5668;52.012;8.724;2023-09-12T12:34:02;2.83;;;2.00;;
11222;SDS011;5668;52.012;8.724;2023-09-12T12:36:30;2.00;;;1.90;;
11222;SDS011;5668;52.012;8.724;2023-09-12T12:38:58;2.40;;;2.20;;
11222;SDS011;5668;52.012;8.724;2023-09-12T12:41:27;3.05;;;2.15;;
11222;SDS011;5668;52.012;8.724;2023-09-12T12:43:56;2.30;;;2.10;;
11222;SDS011;5668;52.012;8.724;2023-09-12T12:46:25;2.08;;;1.98;;
11222;SDS011;5668;52.012;8.724;2023-09-12T12:48:53;2.38;;;2.17;;
11222;SDS011;5668;52.012;8.724;2023-09-12T12:51:21;2.33;;;2.13;;
11222;SDS011;5668;52.012;8.724;2023-09-12T12:53:50;3.30;;;2.00;;
11222;SDS011;5668;52.012;8.724;2023-09-12T12:56:19;2.40;;;2.20;;
11222;SDS011;5668;52.012;8.724;2023-09-12T12:58:49;2.65;;;2.30;;
11222;SDS011;5668;52.012;8.724;2023-09-12T13:01:17;2.47;;;2.28;;
11222;SDS011;5668;52.012;8.724;2023-09-12T13:03:44;2.20;;;2.00;;
11222;SDS011;5668;52.012;8.724;2023-09-12T13:06:12;3.00;;;2.20;;
11222;SDS011;5668;52.012;8.724;2023-09-12T13:08:40;2.53;;;2.33;;
11222;SDS011;5668;52.012;8.724;2023-09-12T13:11:08;2.47;;;2.28;;
11222;SDS011;5668;52.012;8.724;2023-09-12T13:13:37;2.63;;;2.33;;
11222;SDS011;5668;52.012;8.724;2023-09-12T13:16:06;2.22;;;2.10;;
11222;SDS011;5668;52.012;8.724;2023-09-12T13:18:36;2.38;;;2.10;;
11222;SDS011;5668;52.012;8.724;2023-09-12T13:21:04;2.38;;;2.17;;
11222;SDS011;5668;52.012;8.724;2023-09-12T13:23:32;2.53;;;2.33;;
11222;SDS011;5668;52.012;8.724;2023-09-12T13:26:00;2.20;;;2.10;;
11222;SDS011;5668;52.012;8.724;2023-09-12T13:28:28;2.40;;;2.20;;
11222;SDS011;5668;52.012;8.724;2023-09-12T13:30:55;2.50;;;2.30;;
11222;SDS011;5668;52.012;8.724;2023-09-12T13:33:25;2.50;;;2.30;;
11222;SDS011;5668;52.012;8.724;2023-09-12T13:35:52;4.38;;;2.72;;
11222;SDS011;5668;52.012;8.724;2023-09-12T13:38:19;2.40;;;2.20;;
11222;SDS011;5668;52.012;8.724;2023-09-12T13:40:48;3.75;;;2.50;;
11222;SDS011;5668;52.012;8.724;2023-09-12T13:43:15;2.92;;;2.40;;
11222;SDS011;5668;52.012;8.724;2023-09-12T13:45:43;2.60;;;2.40;;
11222;SDS011;5668;52.012;8.724;2023-09-12T13:48:10;3.05;;;2.42;;
11222;SDS011;5668;52.012;8.724;2023-09-12T13:50:40;2.65;;;2.45;;
11222;SDS011;5668;52.012;8.724;2023-09-12T13:53:08;2.47;;;2.30;;
11222;SDS011;5668;52.012;8.724;2023-09-12T13:55:36;2.45;;;2.25;;
11222;SDS011;5668;52.012;8.724;2023-09-12T13:58:04;242.02;;;19.05;;
11222;SDS011;5668;52.012;8.724;2023-09-12T14:00:32;26.80;;;4.88;;
11222;SDS011;5668;52.012;8.724;2023-09-12T14:03:00;14.60;;;3.50;;
11222;SDS011;5668;52.012;8.724;2023-09-12T14:05:27;5.93;;;3.20;;
11222;SDS011;5668;52.012;8.724;2023-09-12T14:07:56;3.75;;;2.60;;
11222;SDS011;5668;52.012;8.724;2023-09-12T14:10:23;3.05;;;2.63;;
11222;SDS011;5668;52.012;8.724;2023-09-12T14:12:50;6.60;;;2.85;;
11222;SDS011;5668;52.012;8.724;2023-09-12T14:15:18;3.47;;;2.38;;
11222;SDS011;5668;52.012;8.724;2023-09-12T14:17:45;2.83;;;2.42;;
11222;SDS011;5668;52.012;8.724;2023-09-12T14:20:12;3.53;;;2.70;;
11222;SDS011;5668;52.012;8.724;2023-09-12T14:22:41;2.63;;;2.30;;
11222;SDS011;5668;52.012;8.724;2023-09-12T14:25:10;2.75;;;2.17;;
11222;SDS011;5668;52.012;8.724;2023-09-12T14:27:40;2.50;;;2.30;;
11222;SDS011;5668;52.012;8.724;2023-09-12T14:30:09;2.47;;;2.28;;
11222;SDS011;5668;52.012;8.724;2023-09-12T14:32:38;3.13;;;2.78;;
11222;SDS011;5668;52.012;8.724;2023-09-12T14:35:05;2.72;;;2.50;;
11222;SDS011;5668;52.012;8.724;2023-09-12T14:37:33;2.60;;;2.40;;
11222;SDS011;5668;52.012;8.724;2023-09-12T14:40:02;2.88;;;2.53;;
11222;SDS011;5668;52.012;8.724;2023-09-12T14:42:32;2.38;;;2.00;;
11222;SDS011;5668;52.012;8.724;2023-09-12T14:45:00;2.50;;;2.30;;
11222;SDS011;5668;52.012;8.724;2023-09-12T14:47:27;2.58;;;2.22;;
11222;SDS011;5668;52.012;8.724;2023-09-12T14:49:55;2.53;;;2.33;;
11222;SDS011;5668;52.012;8.724;2023-09-12T14:52:22;2.47;;;2.28;;
11222;SDS011;5668;52.012;8.724;2023-09-12T14:54:51;2.45;;;2.20;;
11222;SDS011;5668;52.012;8.724;2023-09-12T14:57:19;3.47;;;2.28;;
11222;SDS011;5668;52.012;8.724;2023-09-12T14:59:49;2.70;;;2.20;;
11222;SDS011;5668;52.012;8.724;2023-09-12T15:02:16;2.50;;;2.30;;
11222;SDS011;5668;52.012;8.724;2023-09-12T15:04:43;2.38;;;2.17;;
11222;SDS011;5668;52.012;8.724;2023-09-12T15:07:11;2.83;;;2.53;;
11222;SDS011;5668;52.012;8.724;2023-09-12T15:09:38;2.50;;;2.30;;
11222;SDS011;5668;52.012;8.724;2023-09-12T15:12:05;2.10;;;2.00;;